Terminal Aerodrome Forecast
Issued by NWS Spokane, WA

Home | Current Version | Previous Version | Text Only | Print | Product List | Glossary On
Versions: 1 2 3 4 5 6 7 8 9 10 11 12 13 14
000
FTUS46 KOTX 010521
TAFGEG
TAF
KGEG 010521Z 0106/0206 VRB04KT P6SM SCT150 BKN250
     FM011600 16008KT P6SM SCT120 BKN150 BKN200
     FM012100 21011G17KT P6SM SCT150 SCT250
     FM020200 22009KT P6SM SCT130 BKN200=

USA.gov is the U.S. government's official web portal to all federal, state and local government web resources and services.